Tiempo atmosférico en la estación meteorológica de Puerto de Navacerrada, Madrid (1894 m.)



Fecha
DESCASC
Temp. máxima en grados centígrados (hora)
DESCASC
Temp. mínima en grados centígrados (hora)
DESCASC
Temp. media en grados centígrados
DESCASC
Racha de viento máxima en m/sg (hora)
DESCASC
Velocidad máxima media en intervalos de 10 minutos(hora)
DESCASC
Precipitaciones diarias en mm
DESCASC
Precipitaciones de 00:00 a 06:00 en mm
DESCASC
Precipitaciones de 06:00 a 12:00 en mm
DESCASC
Precipitaciones de 12:00 a 18:00 en mm
DESCASC
Precipitaciones de 18:00 a 24:00 en mm
DESCASC
22-08-2019 24.6 (16:10) 12 (01:20) 18.3 8.06 (18:30) 5.28 (00:20) 0 0 0 0 0
21-08-2019 23 (14:00) 11.6 (00:50) 17.3 11.39 (04:20) 7.22 (04:20) 0 0 0 0 0
20-08-2019 21.6 (18:10) 9.6 (02:30) 15.6 20.83 (01:30) 8.33 (01:30) 4.4 4.4 0 0 0
19-08-2019 22 (17:20) 12.7 (04:40) 17.3 10.83 (11:00) 6.67 (09:30) 0 0 0 0 0
18-08-2019 25.7 (13:40) 14.2 (00:00) 20 10 (05:50) 6.39 (06:20) 0 0 0 0 0
17-08-2019 28.5 (17:00) 15.4 (00:00) 21.9 14.17 (16:10) 6.39 (16:10) 0 0 0 0 0
16-08-2019 28.3 (17:20) 16 (00:00) 22.1 10 (16:50) 4.17 (16:50) 0 0 0 0 0
15-08-2019 25.3 (17:10) 12.5 (00:00) 18.9 8.06 (17:30) 3.89 (14:20) 0 0 0 0 0
14-08-2019 24 (16:10) 11 (00:00) 17.5 8.33 (16:40) 3.61 (16:50) 0 0 0 0 0
13-08-2019 19.7 (16:20) 8.6 (00:00) 14.2 8.61 (17:30) 4.17 (18:00) 0 0 0 0 0
12-08-2019 16.6 (17:30) 4.6 (00:00) 10.6 9.44 (16:10) 5.28 (05:00) 0 0 0 0 0
11-08-2019 19.4 (12:10) 8.2 (00:00) 13.8 12.22 (07:00) 6.39 (07:00) 0 0 0 0 0
10-08-2019 23.1 (15:40) 8.3 (00:00) 15.7 10.56 (04:50) 5.83 (07:50) 0 0 0 0 0
09-08-2019 21.4 (14:40) 12.4 (00:00) 16.9 19.72 (09:10) 10 (09:20) 0 0 0 0 0
08-08-2019 -- (--) -- (--) -- -- (--) -- (--) -- -- 0 0 0
07-08-2019 -- (--) -- (--) -- -- (--) -- (--) -- 0 -- -- 0
06-08-2019 27.5 (15:40) 15 (00:00) 21.3 11.39 (16:40) 6.39 (16:50) 0 0 0 0 0
05-08-2019 27.6 (15:10) 15.7 (00:00) 21.7 12.78 (15:40) 7.22 (15:30) 0 0 0 0 0
04-08-2019 27 (17:00) 15.2 (00:00) 21.1 11.11 (15:40) 5.56 (11:00) 0 0 0 0 0
03-08-2019 27 (16:00) 16.2 (00:00) 21.6 11.11 (15:20) 5.83 (19:30) 0 0 0 0 0
02-08-2019 28.1 (16:40) 15.3 (00:00) 21.7 8.61 (16:20) 4.72 (22:00) 0 0 0 0 0
01-08-2019 23 (12:40) 12.9 (00:00) 17.9 10.83 (01:10) 6.67 (02:50) 0 0 0 0 0
31-07-2019 24.2 (14:50) 11.6 (00:00) 17.9 14.17 (08:00) 8.06 (08:00) 0 0 0 0 0
30-07-2019 20.5 (17:20) 4.5 (00:00) 12.5 7.22 (19:00) 3.33 (01:20) 0 0 0 0 0
29-07-2019 22.6 (14:20) 9.9 (00:00) 16.3 11.11 (18:40) 4.72 (18:00) 0 0 0 0 0
28-07-2019 20.5 (16:00) 6.9 (00:00) 13.7 8.61 (00:50) 6.11 (00:50) 0 0 0 0 0
27-07-2019 15.5 (18:20) 6.9 (00:00) 11.2 11.94 (19:40) 5.56 (20:40) 0.4 0 0 0.4 0
26-07-2019 20.4 (15:10) 10.2 (00:00) 15.3 15 (06:00) 8.06 (06:00) 0 0 0 0 0

Gráficas

Temp. máximas Temp. mínimas Temp. medias Precipitaciones Rachas de viento máximas Velocidades máximas media en intervalos de 10 minutos

Datos horarios

Fecha y hora oficial Temperatura (ºC) Velocidad del viento (km/h) Dirección del viento Racha (km/h) Dirección de racha Precipitación (mm) Presión (hPa) Tendencia (hPa) Humedad (%)
2019-08-24 23:00:00 17.7 17 Sur 24 Sur 0 818.5 0.5 34
2019-08-24 22:00:00 17.8 17 Sur 25 Sur 0 818.2 -0.1 34
2019-08-24 21:00:00 19.3 16 Sudoeste 26 Sur 0 818 -0.5 32
2019-08-24 20:00:00 20.6 13 Sur 21 Sudoeste 0 818 -0.6 31
2019-08-24 19:00:00 22.3 10 Sudoeste 18 Sudoeste 0 818.3 -0.6 28
2019-08-24 18:00:00 22.1 4 Oeste 19 Sudoeste 0 818.5 -0.5 29
2019-08-24 17:00:00 22.3 4 Sudeste 24 Sur 0 818.6 -0.6 30
2019-08-24 16:00:00 24.2 10 Sudoeste 28 Sudoeste 0 818.9 -0.4 27
2019-08-24 15:00:00 23.7 13 Sur 30 Sudoeste 0 819 -0.4 28
2019-08-24 14:00:00 25.3 12 Sur 32 Sur 0 819.2 0 27
2019-08-24 13:00:00 25.4 13 Sur 27 Sur 0 819.3 0.3 28
2019-08-24 12:00:00 24 12 Sur 24 Sur 0 819.4 0.6 30
2019-08-24 11:00:00 22.9 8 Sudeste 15 Sur 0 819.2 0.7 28
2019-08-24 10:00:00 19.8 8 Sur 14 Sur 0 819 0.5 33
2019-08-24 09:00:00 17.5 8 Sur 19 Sur 0 818.8 0.3 37
2019-08-24 08:00:00 14.7 16 Sur 24 Sur 0 818.5 -0.1 38
2019-08-24 07:00:00 13.9 19 Sur 26 Sur 0 818.5 -0.3 43
2019-08-24 06:00:00 13.7 19 Sur 28 Sur 0 818.5 -0.3 43
2019-08-24 05:00:00 13.7 21 Sur 35 Sur 0 818.6 -0.4 43
2019-08-24 04:00:00 14.9 16 Sur 30 Sur 0 818.8 -0.3 43
2019-08-24 03:00:00 16.4 11 Sur 18 Sur 0 818.8 -0.4 34
2019-08-24 02:00:00 16.9 6 Norte 8 Norte 0 819 0 29
2019-08-24 01:00:00 16.8 3 Norte 11 Sudoeste 0 819.1 0.3 33
2019-08-24 00:00:00 16.7 9 Sur 14 Oeste 0 819.2 0.6 34
2019-08-23 23:00:00 16.8 8 Sur 23 Sur 0 819 0.5 36
2019-08-23 22:00:00 16.4 15 Sur 23 Sur 0 818.8 0.1 38
2019-08-23 21:00:00 18.4 14 Sur 23 Sur 0 818.6 -0.2 34
2019-08-23 20:00:00 21.3 10 Sur 30 Sudoeste 0 818.5 -0.3 30
2019-08-23 19:00:00 23.1 14 Sudoeste 30 Sudoeste 0 818.7 -0.2 28
2019-08-23 18:00:00 23.1 11 Sudoeste 31 Sudoeste 0 818.8 -0.6 28
2019-08-23 17:00:00 24.2 8 Sudeste 33 Sudoeste 0 818.8 -0.9 28
2019-08-23 16:00:00 24.9 13 Sudoeste 31 Sudoeste 0 818.9 -1 27
2019-08-23 15:00:00 24.3 9 Sur 24 Sudoeste 0 819.4 -0.6 29
2019-08-23 14:00:00 22.3 8 Sur 28 Sudoeste 0 819.7 -0.2 32
2019-08-23 13:00:00 22.1 9 Sur 31 Sur 0 819.9 0.3 34
2019-08-23 12:00:00 21.2 16 Sur 30 Sur 0 820 0.5 38
2019-08-23 11:00:00 20.4 15 Sudeste 32 Sur 0 819.9 0.4 41
2019-08-23 10:00:00 17.9 20 Sur 33 Sur 0 819.6 0.5 45
2019-08-23 09:00:00 15 18 Sur 30 Sur 0 819.5 0.4 53
2019-08-23 08:00:00 11.8 20 Sur 30 Sur 0 819.5 0.4 62
2019-08-23 07:00:00 11.6 23 Sur 34 Sur 0 819.1 0 78
2019-08-23 06:00:00 12.6 22 Sur 36 Sur 0 819.1 -0.1 72
2019-08-23 05:00:00 13.2 16 Sudeste 23 Sudeste 0 819.1 -0.2 42
2019-08-23 04:00:00 14.3 14 Sudeste 22 Este 0 819.1 -0.3 39
2019-08-23 03:00:00 15.1 14 Sudeste 25 Sudeste 0 819.2 -0.3 34
2019-08-23 02:00:00 15 12 Sudeste 26 Sudeste 0 819.3 -0.3 35
2019-08-23 01:00:00 15.3 10 Sudeste 21 Sudeste 0 819.4 -0.2 35
2019-08-23 00:00:00 15.5 14 Sudeste 19 Sudeste 0 819.5 0.1 35
2019-08-22 23:00:00 16.7 7 Sur 13 Sur 0 819.6 0.5 29
2019-08-22 22:00:00 17.2 3 Noroeste 14 Sur 0 819.6 0.6 25
2019-08-22 21:00:00 17.9 8 Sur 18 Sudeste 0 819.4 0.3 35
2019-08-22 20:00:00 21 4 Oeste 14 Noroeste 0 819.1 0.1 26
2019-08-22 19:00:00 21 6 Sudoeste 29 Sudoeste 0 819 -0.4 38
2019-08-22 18:00:00 21.4 6 Sur 22 Sudoeste 0 819.1 -0.5 37
2019-08-22 17:00:00 21.9 7 Norte 22 Noroeste 0 819 -0.8 26
2019-08-22 16:00:00 23.9 4 Este 24 Norte 0 819.4 -0.7 25
2019-08-22 15:00:00 22.8 8 Norte 26 Noroeste 0 819.6 -0.4 25
2019-08-22 14:00:00 21.8 6 Noroeste 24 Noroeste 0 819.8 0 29
2019-08-22 13:00:00 20.9 9 Noroeste 25 Norte 0 820.1 0.6 28
2019-08-22 12:00:00 20.5 5 Norte 27 Norte 0 820 0.6 30
2019-08-22 11:00:00 19 8 Norte 27 Norte 0 819.8 0.8 28
2019-08-22 10:00:00 18.3 9 Nordeste 18 Nordeste 0 819.5 0.6 31
2019-08-22 09:00:00 14.8 4 Nordeste 14 Norte 0 819.4 0.6 37
2019-08-22 08:00:00 12.4 7 Nordeste 14 Nordeste 0 819 0 43
2019-08-22 07:00:00 12.6 9 Noroeste 12 Norte 0 818.9 0 60
2019-08-22 06:00:00 13 6 Noroeste 10 Norte 0 818.8 -0.2 56
2019-08-22 05:00:00 13.4 7 Norte 9 Norte 0 819 -0.2 52
2019-08-22 04:00:00 13.5 3 Sur 6 Nordeste 0 818.9 -0.5 52
2019-08-22 03:00:00 13.3 5 Nordeste 8 Sudeste 0 819 -0.6 56
2019-08-22 02:00:00 12.4 7 Este 16 Sudeste 0 819.2 -0.2 61
2019-08-22 01:00:00 12.2 15 Sudeste 28 Sur 0 819.4 0.6 91
2019-08-22 00:00:00 12.9 16 Sudeste 27 Sudeste 0 819.6 1.2 86
2019-08-21 23:00:00 14.2 14 Este 30 Este 0 819.4 1.6 67
2019-08-21 22:00:00 15 12 Norte 21 Norte 0 818.8 1.1 59
2019-08-21 21:00:00 16.3 13 Norte 27 Noroeste 0 818.4 0.7 55
2019-08-21 20:00:00 18.4 9 Noroeste 27 Noroeste 0 817.8 0 46
2019-08-21 19:00:00 19.8 7 Oeste 24 Noroeste 0 817.7 -0.3 46
2019-08-21 18:00:00 20.5 6 Norte 18 Noroeste 0 817.7 -0.6 40
2019-08-21 17:00:00 18.9 9 Sur 20 Sur 0 817.8 -0.5 64
2019-08-21 16:00:00 20 13 Sudoeste 23 Sudoeste 0 818 -0.5 51
2019-08-21 15:00:00 22.1 8 Sur 22 Sur 0 818.3 -0.3 54
2019-08-21 14:00:00 23 10 Sur 27 Sur 0 818.3 -0.1 53
2019-08-21 13:00:00 19.4 12 Sur 27 Sur 0 818.5 0.3 64
2019-08-21 12:00:00 19.6 15 Sudeste 31 Sur 0 818.6 0.5 65
2019-08-21 11:00:00 16.1 17 Sudeste 33 Sudeste 0 818.4 0.5 80
2019-08-21 10:00:00 14.6 21 Sudeste 34 Sudeste 0 818.2 0.4 89
2019-08-21 09:00:00 12.6 19 Sudeste 34 Sudeste 0 818.1 0.1 94
2019-08-21 08:00:00 11.8 22 Sudeste 34 Sur 0 817.9 0 98
2019-08-21 07:00:00 11.7 24 Sudeste 39 Sur 0 817.8 -0.3 98
2019-08-21 06:00:00 11.7 22 Sudeste 36 Sur 0 818 -0.2 97
2019-08-21 05:00:00 11.8 21 Sudeste 41 Sudeste 0 817.9 -0.4 94
2019-08-21 04:00:00 11.9 22 Sudeste 37 Sudeste 0 818.1 -0.1 94
2019-08-21 03:00:00 12.1 23 Sudeste 36 Sudeste 0 818.2 0 93
2019-08-21 02:00:00 12.2 23 Sudeste 38 Sudeste 0 818.3 0.1 85
2019-08-21 01:00:00 11.7 14 Este 37 Este 0 818.2 0.3 79
2019-08-21 00:00:00 12.4 16 Sudeste 26 Sur 0 818.2 0.5 76
2019-08-20 23:00:00 13.7 12 Sudeste 16 Sur 0 818.2 0.5 61
2019-08-20 22:00:00 14.8 6 Noroeste 15 Noroeste 0 817.9 0.3 54
2019-08-20 21:00:00 16.2 8 Noroeste 21 Noroeste 0 817.7 0.2 51
2019-08-20 20:00:00 17.7 2 Norte 15 Noroeste 0 817.7 0.1 49
2019-08-20 19:00:00 18.5 7 Norte 24 Noroeste 0 817.6 -0.2 47
2019-08-20 18:00:00 21 6 Noroeste 22 Oeste 0 817.5 -0.2 42
2019-08-20 17:00:00 20.9 5 Oeste 22 Noroeste 0 817.6 0 45
2019-08-20 16:00:00 18.9 12 Noroeste 25 Noroeste 0 817.8 0.2 54
2019-08-20 15:00:00 18.6 6 Noroeste 19 Noroeste 0 817.7 0.6 58
2019-08-20 14:00:00 17.9 5 Este 18 Noroeste 0 817.6 1 61
2019-08-20 13:00:00 15.6 7 Noroeste 17 Oeste 0 817.6 1.5 67
2019-08-20 12:00:00 16.1 4 Norte 13 Noroeste 0 817.1 1.4 68
2019-08-20 11:00:00 14.8 5 Oeste 14 Norte 0 816.6 1.3 68
2019-08-20 10:00:00 14.2 6 Noroeste 11 Noroeste 0 816.1 1.2 69
2019-08-20 09:00:00 12 3 Sudoeste 5 Sudoeste 0 815.7 1.2 77
2019-08-20 08:00:00 10.9 2 Nordeste 10 Oeste 0 815.3 0.8 80
2019-08-20 07:00:00 10.9 4 Oeste 13 Norte 0 814.9 0.6 79
2019-08-20 06:00:00 11.8 9 Sudoeste 17 Sudoeste 0 814.5 0 62
2019-08-20 05:00:00 11.4 5 Sudoeste 24 Sudoeste 0 814.5 -0.9 65
2019-08-20 04:00:00 11.9 22 Sudoeste 37 Sudoeste 0 814.3 -1.3 63
2019-08-20 03:00:00 10.1 23 Sur 36 Oeste 1.2 814.5 -0.9 76
2019-08-20 02:00:00 10.8 18 Oeste 75 Sudoeste 2.2 815.4 0.3 72
2019-08-20 01:00:00 11.6 24 Sudoeste 50 Sur 1 815.6 0.5 66
2019-08-20 00:00:00 14.6 15 Sudoeste 37 Sudoeste 0 815.4 0.6 46
2019-08-19 23:00:00 15 15 Sur 39 Sur 0 815.1 0.2 46
2019-08-19 22:00:00 15 6 Nordeste 19 Sudoeste 0 815.1 -0.2 66
2019-08-19 21:00:00 17.1 5 Sur 25 Sudeste 0 814.8 -0.5 31
2019-08-19 20:00:00 15.8 0 Calma 13 Noroeste 0 814.9 -0.2 66
2019-08-19 19:00:00 17 5 Norte 22 Noroeste 0 815.3 0 62
2019-08-19 18:00:00 18.8 10 Noroeste 28 Sudoeste 0 815.3 -0.2 55
2019-08-19 17:00:00 21.2 14 Sudoeste 27 Sudoeste 0 815.1 -0.2 30
2019-08-19 16:00:00 19.9 12 Sudoeste 30 Sudoeste 0 815.3 0.1 38
2019-08-19 15:00:00 21.1 10 Sur 32 Sudoeste 0 815.5 0.4 37
2019-08-19 14:00:00 19.2 9 Sudoeste 37 Sudoeste 0 815.3 0.6 46
2019-08-19 13:00:00 20.4 12 Sur 30 Sur 0 815.2 0.7 50
2019-08-19 12:00:00 19.2 11 Sur 33 Sur 0 815.1 0.6 52
2019-08-19 11:00:00 16.3 20 Sudeste 39 Sur 0 814.7 0.4 64
2019-08-19 10:00:00 17.2 13 Sudeste 37 Sur 0 814.5 0.2 64
2019-08-19 09:00:00 14.2 17 Sur 32 Sudeste 0 814.5 0.3 79
2019-08-19 08:00:00 13 8 Sur 26 Sur 0 814.3 -0.2 82
2019-08-19 07:00:00 13 14 Sudoeste 26 Sudoeste 0 814.3 -0.4 82
2019-08-19 06:00:00 13.4 14 Sudoeste 22 Sudoeste 0 814.2 -0.9 77
2019-08-19 05:00:00 13.7 12 Sudoeste 19 Sudoeste 0 814.5 -0.9 70
2019-08-19 04:00:00 12.9 4 Oeste 8 Norte 0 814.7 -1 83
2019-08-19 03:00:00 13 6 Norte 13 Norte 0 815.1 -0.4 82
2019-08-19 02:00:00 13.3 6 Oeste 14 Norte 0 815.4 -0.2 83
2019-08-19 01:00:00 13.4 8 Noroeste 18 Noroeste 0 815.7 0.5 83
2019-08-19 00:00:00 14.2 8 Noroeste 17 Norte 0 815.5 0.7 76
2019-08-18 23:00:00 14.7 12 Norte 18 Norte 0 815.6 0.8 71
2019-08-18 22:00:00 15.8 9 Norte 24 Noroeste 0 815.2 0.3 52
2019-08-18 21:00:00 17.5 11 Noroeste 28 Noroeste 0 814.8 -0.1 46
2019-08-18 20:00:00 19.7 12 Noroeste 32 Noroeste 0 814.8 -0.1 36
2019-08-18 19:00:00 19.8 14 Norte 27 Noroeste 0 814.9 0.1 34
2019-08-18 18:00:00 23.6 9 Oeste 26 Noroeste 0 814.9 0 28
2019-08-18 17:00:00 24.3 8 Noroeste 25 Noroeste 0 814.9 0.1 31
2019-08-18 16:00:00 22.9 12 Norte 30 Oeste 0 814.8 -0.1 35
2019-08-18 15:00:00 23.9 9 Noroeste 31 Sur 0 814.9 0 34
2019-08-18 14:00:00 24.3 10 Sudoeste 33 Sur 0 814.8 0.2 20
2019-08-18 13:00:00 24.9 10 Sudoeste 32 Sur 0 814.9 0.6 23
2019-08-18 12:00:00 23 12 Sudoeste 30 Sur 0 814.9 0.8 24
2019-08-18 11:00:00 21.3 17 Sur 30 Sudoeste 0 814.6 0.6 28
2019-08-18 10:00:00 20.5 17 Sur 30 Sudoeste 0 814.3 0.5 26
2019-08-18 09:00:00 18.4 15 Sur 29 Sur 0 814.1 0.3 30
2019-08-18 08:00:00 17.4 22 Sudoeste 36 Sur 0 814 -0.4 29
2019-08-18 07:00:00 17.2 22 Sudoeste 34 Sudoeste 0 813.8 -1 30
2019-08-18 06:00:00 16.6 19 Sudoeste 36 Sudoeste 0 813.8 -1.3 28
2019-08-18 05:00:00 14.2 10 Este 18 Norte 0 814.4 -1.2 46
2019-08-18 04:00:00 16.9 9 Nordeste 12 Sudoeste 0 814.8 -1.1 36
2019-08-18 03:00:00 17.8 4 Oeste 10 Noroeste 0 815.1 -1 30
2019-08-18 02:00:00 18 4 Noroeste 13 Noroeste 0 815.6 -0.6 35
2019-08-18 01:00:00 18.5 6 Noroeste 17 Oeste 0 815.9 -0.1 32
2019-08-18 00:00:00 19.1 9 Noroeste 17 Noroeste 0 816.1 0.3 32
2019-08-17 23:00:00 19.6 6 Noroeste 19 Noroeste 0 816.2 0.5 31
2019-08-17 22:00:00 20.6 4 Noroeste 14 Noroeste 0 816 0.1 34
2019-08-17 21:00:00 22.2 4 Norte 29 Sudoeste 0 815.8 -0.3 29
2019-08-17 20:00:00 25 13 Sudoeste 34 Sudoeste 0 815.7 -0.7 18
2019-08-17 19:00:00 26.6 12 Sudoeste 35 Sudoeste 0 815.9 -0.9 15
2019-08-17 18:00:00 28.1 15 Sudoeste 34 Sudoeste 0 816.1 -0.8 13
2019-08-17 17:00:00 28.1 11 Sudoeste 51 Sudoeste 0 816.4 -0.9 13
2019-08-17 16:00:00 27.8 19 Sur 44 Sudoeste 0 816.8 -0.7 17
2019-08-17 15:00:00 27.4 16 Sudoeste 33 Sur 0 816.9 -0.9 21
2019-08-17 14:00:00 26 18 Sudoeste 39 Sudoeste 0 817.3 -0.4 24
2019-08-17 13:00:00 25.3 17 Sudoeste 35 Sudoeste 0 817.5 -0.1 25
2019-08-17 12:00:00 24 12 Sudoeste 32 Sur 0 817.8 0.4 28
2019-08-17 11:00:00 22.9 12 Sur 29 Sudoeste 0 817.7 0.6 31
2019-08-17 10:00:00 20.5 14 Sur 26 Sur 0 817.6 0.6 35
2019-08-17 09:00:00 18.4 13 Sur 22 Sudoeste 0 817.4 0.3 38
2019-08-17 08:00:00 16.6 13 Sur 18 Sur 0 817.1 -0.2 41
2019-08-17 07:00:00 16.6 14 Sur 19 Sur 0 817 -0.6 41
2019-08-17 06:00:00 16.4 5 Oeste 10 Noroeste 0 817.1 -0.8 40
2019-08-17 05:00:00 15.5 4 Este 11 Noroeste 0 817.3 -0.7 42
2019-08-17 04:00:00 15.7 8 Norte 17 Noroeste 0 817.6 -0.7 41
2019-08-17 03:00:00 16.4 8 Noroeste 19 Noroeste 0 817.9 -0.3 36
2019-08-17 02:00:00 17.7 8 Noroeste 15 Norte 0 818 -0.3 40
2019-08-17 01:00:00 17.7 10 Norte 19 Norte 0 818.3 0.3 39
2019-08-17 00:00:00 18.1 6 Norte 18 Noroeste 0 818.2 0.4 37
2019-08-16 23:00:00 18.8 10 Noroeste 19 Noroeste 0 818.3 0.8 35
2019-08-16 22:00:00 18.9 10 Norte 24 Noroeste 0 818 0.5 37
2019-08-16 21:00:00 20.5 11 Norte 30 Noroeste 0 817.8 0.3 36
2019-08-16 20:00:00 23.4 9 Noroeste 27 Noroeste 0 817.5 -0.1 35
2019-08-16 19:00:00 24.6 11 Noroeste 29 Noroeste 0 817.5 -0.3 34
2019-08-16 18:00:00 25.8 11 Oeste 27 Oeste 0 817.5 -0.6 31
2019-08-16 17:00:00 27.2 9 Oeste 36 Sudoeste 0 817.6 -0.7 30
2019-08-16 16:00:00 26.5 12 Oeste 28 Oeste 0 817.8 -0.6 32
2019-08-16 15:00:00 23.9 9 Noroeste 26 Sur 0 818.1 -0.5 35
2019-08-16 14:00:00 24.3 6 Norte 27 Sudoeste 0 818.3 0 34
2019-08-16 13:00:00 25.5 8 Sudoeste 32 Sur 0 818.4 0 33
2019-08-16 12:00:00 23.9 8 Sur 24 Sur 0 818.6 0.3 37
2019-08-16 11:00:00 22.2 9 Sur 21 Sur 0 818.3 0.2 40
2019-08-16 10:00:00 20.3 6 Sur 11 Sur 0 818.4 0.5 42
2019-08-16 09:00:00 18.4 3 Oeste 5 Noroeste 0 818.3 0.4 44
2019-08-16 08:00:00 16.7 4 Noroeste -- -- 0 818.1 -0.1 49
2019-08-16 07:00:00 16.3 2 Norte 7 Norte 0 817.9 -0.4 49
2019-08-16 06:00:00 16.5 6 Norte 12 Norte 0 817.9 -0.7 50
2019-08-16 05:00:00 16.9 7 Noroeste 10 Noroeste 0 818.2 -0.7 47
2019-08-16 04:00:00 17.1 7 Oeste 12 Noroeste 0 818.3 -0.9 46
2019-08-16 03:00:00 16.6 3 Norte 8 Este 0 818.6 -0.6 50
2019-08-16 02:00:00 16.4 6 Nordeste 12 Norte 0 818.9 -0.4 54
2019-08-16 01:00:00 17.1 4 Noroeste 10 Noroeste 0 819.2 0 52
2019-08-16 00:00:00 17 6 Norte 10 Norte 0 819.2 0.3 52
2019-08-15 23:00:00 17.5 6 Noroeste 17 Noroeste 0 819.3 0.5 48
2019-08-15 22:00:00 18 10 Norte 21 Norte 0 819.2 0.3 45
2019-08-15 21:00:00 20 7 Noroeste 21 Norte 0 818.9 0.1 35
2019-08-15 20:00:00 22 10 Noroeste 24 Noroeste 0 818.8 -0.1 28
2019-08-15 19:00:00 23.3 11 Noroeste 27 Noroeste 0 818.9 -0.3 26
2019-08-15 18:00:00 23.8 13 Noroeste 29 Noroeste 0 818.8 -0.5 27
2019-08-15 17:00:00 25 9 Noroeste 27 Noroeste 0 818.9 -0.5 28
2019-08-15 16:00:00 24.2 9 Noroeste 28 Noroeste 0 819.2 -0.4 32
2019-08-15 15:00:00 23.5 9 Norte 27 Noroeste 0 819.3 -0.3 36
2019-08-15 14:00:00 22.6 12 Noroeste 24 Norte 0 819.4 -0.2 45
2019-08-15 13:00:00 22.2 8 Noroeste 22 Noroeste 0 819.6 0.2 47
2019-08-15 12:00:00 21.6 6 Noroeste 15 Noroeste 0 819.6 0.4 44
2019-08-15 11:00:00 20.8 4 Norte 14 Nordeste 0 819.6 0.5 49
2019-08-15 10:00:00 18.1 5 Norte 11 Nordeste 0 819.4 0.6 57
2019-08-15 09:00:00 16.8 8 Norte 17 Norte 0 819.2 0.6 61
2019-08-15 08:00:00 14 7 Nordeste 13 Noroeste 0 819.1 0.5 65
2019-08-15 07:00:00 14 5 Norte 12 Noroeste 0 818.8 0 54
2019-08-15 06:00:00 15.2 5 Norte 10 Nordeste 0 818.6 -0.4 45
2019-08-15 05:00:00 15.1 7 Norte 12 Nordeste 0 818.6 -0.9 44
2019-08-15 04:00:00 14.8 11 Nordeste 14 Norte 0 818.8 -0.7 45
2019-08-15 03:00:00 16.5 9 Norte 15 Norte 0 819 -0.7 40
2019-08-15 02:00:00 16.1 6 Nordeste 11 Este 0 819.5 -0.2 38
2019-08-15 01:00:00 16.1 8 Nordeste 14 Norte 0 819.5 0.2 37
2019-08-15 00:00:00 16.6 9 Noroeste 13 Noroeste 0 819.7 0.6 35
2019-08-14 23:00:00 16.3 9 Norte 16 Noroeste 0 819.7 0.8 35
2019-08-14 22:00:00 16.9 9 Norte 19 Noroeste 0 819.3 0.5 32
2019-08-14 21:00:00 18.6 7 Norte 18 Norte 0 819.1 0.1 29
2019-08-14 20:00:00 20.6 10 Noroeste 26 Noroeste 0 818.9 -0.1 24
2019-08-14 19:00:00 22.1 8 Noroeste 27 Noroeste 0 818.8 -0.4 24
2019-08-14 18:00:00 22.8 8 Noroeste 29 Noroeste 0 819 -0.3 22
2019-08-14 17:00:00 23.4 10 Noroeste 30 Norte 0 819 -0.2 22
2019-08-14 16:00:00 23.9 10 Norte 24 Norte 0 819.2 -0.2 22
2019-08-14 15:00:00 22.6 10 Norte 28 Noroeste 0 819.3 -0.1 23
2019-08-14 14:00:00 22 7 Noroeste 24 Noroeste 0 819.2 0.2 24
2019-08-14 13:00:00 20.3 8 Noroeste 23 Noroeste 0 819.4 0.6 26
2019-08-14 12:00:00 20.6 6 Noroeste 18 Oeste 0 819.4 0.9 27
2019-08-14 11:00:00 18.8 5 Noroeste 10 Noroeste 0 819 0.6 31
2019-08-14 10:00:00 17.2 4 Noroeste 16 Sudoeste 0 818.8 0.7 31
2019-08-14 09:00:00 14.4 4 Sur 13 Sudoeste 0 818.5 0.5 38
2019-08-14 08:00:00 12.5 4 Noroeste 15 Sudoeste 0 818.4 0.1 44
2019-08-14 07:00:00 12.1 4 Oeste 5 Noroeste 0 818.1 -0.4 46
2019-08-14 06:00:00 11.9 2 Nordeste 8 Nordeste 0 818 -0.5 32
2019-08-14 05:00:00 11.1 8 Nordeste 13 Nordeste 0 818.3 -0.3 43
2019-08-14 04:00:00 11.8 9 Norte 12 Norte 0 818.5 0 37
2019-08-14 03:00:00 12.2 8 Noroeste 11 Noroeste 0 818.5 0 35
2019-08-14 02:00:00 12.1 3 Oeste 7 Noroeste 0 818.6 0.1 36
2019-08-14 01:00:00 12.3 4 Oeste 9 Norte 0 818.5 0.3 36
2019-08-14 00:00:00 12.3 4 Noroeste 10 Norte 0 818.5 0.7 37
2019-08-13 23:00:00 12.6 8 Noroeste 20 Norte 0 818.5 0.9 38
2019-08-13 22:00:00 13.2 12 Norte 19 Norte 0 818.2 0.5 37
2019-08-13 21:00:00 14.6 9 Norte 22 Noroeste 0 817.8 0.3 32
2019-08-13 20:00:00 16.5 10 Noroeste 23 Noroeste 0 817.6 -0.1 27
2019-08-13 19:00:00 18 12 Noroeste 27 Noroeste 0 817.7 0.1 24
2019-08-13 18:00:00 18.2 15 Norte 31 Noroeste 0 817.5 -0.2 24
2019-08-13 17:00:00 18.8 11 Noroeste 29 Noroeste 0 817.7 -0.2 23
2019-08-13 16:00:00 18.7 10 Noroeste 29 Noroeste 0 817.6 -0.3 25
2019-08-13 15:00:00 18.7 8 Norte 24 Norte 0 817.7 -0.2 26
2019-08-13 14:00:00 17.2 8 Norte 25 Norte 0 817.9 0.4 31
2019-08-13 13:00:00 16.1 10 Noroeste 25 Noroeste 0 817.9 0.7 36
2019-08-13 12:00:00 15.2 9 Noroeste 18 Noroeste 0 817.9 0.9 38
2019-08-13 11:00:00 14.7 4 Norte 11 Oeste 0 817.5 0.8 38
2019-08-13 10:00:00 13.1 4 Norte 8 Norte 0 817.2 0.7 38
2019-08-13 09:00:00 11.4 4 Norte 8 Sudoeste 0 817 0.5 42
2019-08-13 08:00:00 9.5 6 Sudoeste 11 Sur 0 816.7 0.2 45
2019-08-13 07:00:00 9 2 Sudoeste 5 Oeste 0 816.5 -0.5 48
2019-08-13 06:00:00 9.1 4 Oeste 8 Noroeste 0 816.5 -0.7 47
2019-08-13 05:00:00 8.6 7 Este 10 Este 0 816.5 -1.1 49
2019-08-13 04:00:00 9.1 5 Noroeste 6 Noroeste 0 817 -0.5 51
2019-08-13 03:00:00 9.3 4 Oeste 9 Norte 0 817.2 0.1 51
2019-08-13 02:00:00 9.3 6 Noroeste 13 Noroeste 0 817.6 0.3 49
2019-08-13 01:00:00 9.6 4 Noroeste 25 Sur 0 817.5 0.5 47
2019-08-13 00:00:00 10.8 12 Sur 22 Sur 0 817.1 0 40
2019-08-12 23:00:00 9.3 7 Noroeste 10 Oeste 0 817.3 0.7 48
2019-08-12 22:00:00 9.5 8 Oeste 21 Norte 0 817 0.6 46
2019-08-12 21:00:00 10.6 11 Norte 30 Noroeste 0 817.1 0.6 43
2019-08-12 20:00:00 13.4 13 Noroeste 30 Noroeste 0 816.6 0 37
2019-08-12 19:00:00 15.2 7 Norte 27 Norte 0 816.4 -0.4 33
2019-08-12 18:00:00 16 10 Norte 27 Norte 0 816.5 -0.3 32
2019-08-12 17:00:00 15.6 13 Noroeste 34 Noroeste 0 816.6 -0.3 34
2019-08-12 16:00:00 16.3 12 Noroeste 31 Noroeste 0 816.8 -0.1 33
2019-08-12 15:00:00 15.5 6 Noroeste 30 Noroeste 0 816.8 0.1 37
2019-08-12 14:00:00 13.8 13 Noroeste 31 Norte 0 816.9 0.6 42
2019-08-12 13:00:00 12.2 11 Noroeste 28 Noroeste 0 816.9 1 52
2019-08-12 12:00:00 10.6 12 Noroeste 25 Norte 0 816.7 1.2 59
2019-08-12 11:00:00 10.6 13 Norte 27 Norte 0 816.3 1.4 56
2019-08-12 10:00:00 8.4 17 Norte 30 Norte 0 815.9 1.3 77
2019-08-12 09:00:00 7.7 12 Nordeste 22 Norte 0 815.5 0.9 80
2019-08-12 08:00:00 5.4 12 Norte 26 Norte 0 814.9 0.2 96
2019-08-12 07:00:00 5 15 Norte 24 Norte 0 814.6 -0.4 97
2019-08-12 06:00:00 4.7 14 Norte 24 Norte 0 814.6 -0.8 95
2019-08-12 05:00:00 5.3 19 Norte 29 Norte 0 814.7 -1.1 88
2019-08-12 04:00:00 5 14 Norte 19 Norte 0 815 -1 94
2019-08-12 03:00:00 5.4 13 Norte 19 Norte 0 815.4 -0.6 90
2019-08-12 02:00:00 5.3 12 Norte 24 Noroeste 0 815.8 -0.4 77
2019-08-12 01:00:00 6.7 10 Norte 30 Noroeste 0 816 0.3 63
2019-08-12 00:00:00 8.2 11 Norte 32 Noroeste 0 816 0.7 54
2019-08-11 23:00:00 9.3 16 Norte 28 Norte 0 816.2 1.2 50
2019-08-11 22:00:00 10 12 Norte 27 Noroeste 0 815.7 0.7 49
2019-08-11 21:00:00 11.5 8 Norte 31 Norte 0 815.3 0.4 47
2019-08-11 20:00:00 13.8 6 Norte 36 Noroeste 0 815 0.1 43
2019-08-11 19:00:00 15.3 12 Norte 37 Norte 0 815 0 45
2019-08-11 18:00:00 16 11 Noroeste 37 Noroeste 0 814.9 -0.3 50
2019-08-11 17:00:00 16.7 10 Norte 27 Noroeste 0 814.9 -0.4 51
2019-08-11 16:00:00 16.4 10 Norte 26 Norte 0 815 -0.2 54
2019-08-11 15:00:00 16.1 11 Noroeste 33 Norte 0 815.2 0.1 57
2019-08-11 14:00:00 17.5 11 Noroeste 27 Norte 0 815.3 0.3 50
2019-08-11 13:00:00 18.3 6 Norte 24 Noroeste 0 815.2 0.6 47
2019-08-11 12:00:00 18.4 9 Sudoeste 30 Sur 0 815.1 0.7 37
2019-08-11 11:00:00 17.2 15 Sur 30 Sur 0 815 0.8 39
2019-08-11 10:00:00 14.7 16 Sur 32 Sudoeste 0 814.6 1 44
2019-08-11 09:00:00 13.2 13 Sudoeste 25 Sudoeste 0 814.4 -0.6 47
2019-08-11 08:00:00 12 14 Sudoeste 34 Sudoeste 0 814.2 -0.6 47
2019-08-11 07:00:00 11.5 23 Sudoeste 44 Sudoeste 0 813.6 -1.3 46
2019-08-11 06:00:00 9.1 9 Norte 24 Noroeste 0 815 0 77
2019-08-11 05:00:00 10.1 8 Nordeste 14 Norte 0 814.8 -0.5 72
2019-08-11 04:00:00 10.3 6 Norte 15 Norte 0 814.9 -1 66
2019-08-11 03:00:00 12.1 2 Este 8 Sudoeste 0 815 -1.3 57
2019-08-11 02:00:00 12.5 5 Nordeste 14 Oeste 0 815.3 -1.6 55
2019-08-11 01:00:00 12.8 7 Oeste 13 Oeste 0 815.9 -0.9 54
2019-08-11 00:00:00 13.7 7 Noroeste 12 Norte 0 816.3 -0.2 50
2019-08-10 23:00:00 13.9 10 Norte 16 Norte 0 816.9 0.4 49
2019-08-10 22:00:00 14.9 5 Noroeste 20 Noroeste 0 816.8 0.1 45
2019-08-10 21:00:00 17 10 Oeste 32 Sudoeste 0 816.5 -0.3 25
2019-08-10 20:00:00 18.2 18 Sudoeste 32 Sudoeste 0 816.5 -0.7 26
2019-08-10 19:00:00 19.3 9 Sur 32 Sur 0 816.7 -0.8 37
2019-08-10 18:00:00 19.5 14 Sudoeste 28 Sudoeste 0 816.8 -0.7 34
2019-08-10 17:00:00 20.4 12 Sur 26 Sur 0 817.2 -0.5 31
2019-08-10 16:00:00 21.7 10 Sur 26 Sudoeste 0 817.5 -0.1 34
2019-08-10 15:00:00 22.1 10 Sur 27 Sudoeste 0 817.5 -0.1 34
2019-08-10 14:00:00 19.7 8 Sudoeste 29 Sur 0 817.7 0.3 36
2019-08-10 13:00:00 20.7 8 Sur 19 Sur 0 817.6 0.2 39
2019-08-10 12:00:00 19.8 3 Sur 19 Sudeste 0 817.6 0.8 51
2019-08-10 11:00:00 17.7 4 Sudeste 16 Sur 0 817.4 0.9 58
2019-08-10 10:00:00 15.6 9 Sudoeste 32 Sudoeste 0 817.4 1 45
2019-08-10 09:00:00 13.2 19 Sudoeste 27 Sudoeste 0 816.8 0.4 36
2019-08-10 08:00:00 12.4 21 Sudoeste 36 Sudoeste 0 816.5 0.1 38
2019-08-10 07:00:00 8.4 8 Sur 24 Sudoeste 0 816.4 0 93
2019-08-10 06:00:00 8.7 4 Oeste 15 Oeste 0 816.4 -0.1 89
2019-08-10 05:00:00 11.3 11 Sudoeste 38 Sudoeste 0 816.4 -0.6 50
2019-08-10 04:00:00 9.8 8 Sur 18 Sur 0 816.4 -0.7 67
2019-08-10 03:00:00 9.4 6 Noroeste 14 Norte 0 816.5 -0.5 89
2019-08-10 02:00:00 9.8 9 Nordeste 17 Nordeste 0 817 0.1 91
2019-08-10 01:00:00 10.5 10 Norte 14 Norte 0 817.1 0.6 92
2019-08-10 00:00:00 12.4 5 Nordeste 30 Oeste 0 817 0.6 97
2019-08-09 23:00:00 13.5 18 Oeste 40 Sudoeste 0 816.9 0.5 91
2019-08-09 22:00:00 14.2 23 Sudoeste 48 Oeste 0 816.5 0 90
2019-08-09 21:00:00 13.2 16 Oeste 39 Sudoeste 0 816.4 0.4 97
2019-08-09 20:00:00 13.6 8 Este 19 Nordeste 0 816.4 0.2 91
2019-08-09 19:00:00 15.4 6 Noroeste 23 Oeste 0 816.5 0.1 89
2019-08-09 18:00:00 18 6 Oeste 16 Noroeste 0 816 -0.2 78
2019-08-09 17:00:00 17.6 8 Noroeste 19 Noroeste 0 816.2 -0.1 79
2019-08-09 16:00:00 18.4 6 Noroeste 33 Sudoeste 0 816.4 0.2 73
2019-08-09 15:00:00 20.1 18 Sudoeste 40 Sudoeste 0 816.2 0.3 64
2019-08-09 14:00:00 19.2 14 Sudoeste 32 Sur 0 816.3 0.8 69
2019-08-09 13:00:00 19.3 14 Sur 32 Sudoeste 0 816.2 0.9 70
2019-08-09 12:00:00 19.5 10 Sudoeste 24 Sudoeste 0 815.9 1.3 65
2019-08-09 11:00:00 20.2 14 Sudoeste 41 Sur 0 815.5 1.2 57
2019-08-09 10:00:00 18 20 Sudoeste 71 Sudoeste 0 815.3 0.8 59
2019-08-09 09:00:00 16.5 33 Sudoeste 57 Sudoeste 0 814.6 0.2 55
2019-08-09 08:00:00 15.9 30 Sudoeste 55 Sudoeste 0 814.3 -0.2 52
2019-08-09 07:00:00 15.7 25 Sudoeste 46 Sudoeste 0 814.5 -0.3 54
2019-08-09 06:00:00 16.3 32 Sudoeste 54 Sudoeste 0 814.4 -0.5 54
2019-08-09 05:00:00 15.9 30 Sudoeste 50 Sudoeste 0 814.5 -0.8 54
2019-08-09 04:00:00 16.2 22 Sudoeste 53 Sudoeste 0 814.8 -0.6 58
2019-08-09 03:00:00 17.5 30 Sudoeste 50 Sudoeste 0 814.9 -0.5 45
2019-08-09 02:00:00 17.5 23 Sudoeste 48 Sudoeste 0 815.3 -0.1 49
2019-08-09 01:00:00 17.1 28 Sudoeste 46 Sudoeste 0 815.4 0.4 54
2019-08-09 00:00:00 16.8 22 Sudoeste 45 Sudoeste 0 815.4 0.5 55
2019-08-08 23:00:00 17 19 Sudoeste 35 Sudoeste 0 815.4 0.6 55
2019-08-08 22:00:00 17.5 25 Sur 37 Sur 0 815 0.2 54
2019-08-08 21:00:00 19.3 22 Sudoeste 38 Sudoeste 0 814.9 0 50
2019-08-08 20:00:00 21.5 22 Sudoeste 43 Sudoeste 0 814.8 -0.2 41
2019-08-08 19:00:00 22.5 28 Sudoeste 44 Sudoeste 0 814.8 -0.3 42
2019-08-08 18:00:00 22.1 12 Sudoeste 41 Sudoeste 0 814.9 -0.6 47
2019-08-08 17:00:00 22 17 Sur 40 Sur 0 815 -0.4 48
2019-08-08 16:00:00 23.4 17 Sudoeste 42 Sudoeste 0 815.1 -0.3 46
2019-08-08 15:00:00 23.4 11 Sudoeste 29 Sudoeste 0 815.5 -- 46
2019-08-08 14:00:00 22.8 13 Sur 33 Sur 0 815.4 0.2 46
2019-08-08 13:00:00 21.6 10 Sudoeste 33 Sur 0 815.4 0.3 52
2019-08-08 12:00:00 -- -- -- -- -- -- -- -- --
2019-08-08 11:00:00 16.8 5 Oeste 13 Noroeste 0 815.2 0.7 73
2019-08-08 10:00:00 16.5 6 Noroeste 22 Oeste 0 815.1 0.6 74
2019-08-08 09:00:00 14.6 8 Noroeste 18 Noroeste 0 814.9 0.5 83
2019-08-08 08:00:00 13.6 8 Oeste 19 Noroeste 0 814.5 -- 80
2019-08-08 07:00:00 12.1 5 Oeste 17 Norte 0 814.5 -0.2 80
2019-08-08 06:00:00 12 6 Norte -- -- -- 814.4 -0.5 59
2019-08-08 05:00:00 -- -- -- -- -- -- -- -- --
2019-08-08 04:00:00 10.9 9 Norte 16 Nordeste 0 814.7 -0.1 76
2019-08-08 03:00:00 11.5 9 Nordeste 20 Norte 0 814.9 0 84
2019-08-08 02:00:00 12.7 6 Norte 28 Noroeste 0 814.9 0 66
2019-08-08 01:00:00 13.1 17 Oeste 28 Noroeste 0 814.8 0.4 65
2019-08-08 00:00:00 12.8 9 Noroeste 24 Noroeste 0 814.9 0.8 77
2019-08-07 23:00:00 12.7 8 Noroeste 22 Noroeste 0 814.9 0.9 79
2019-08-07 22:00:00 12.6 9 Noroeste 29 Noroeste 0 814.4 0.1 79
2019-08-07 21:00:00 13.9 7 Noroeste 27 Oeste 0 814.1 -0.3 77
2019-08-07 20:00:00 14 16 Oeste 39 Oeste 0 814 -0.6 79
2019-08-07 19:00:00 14.4 17 Oeste 50 Sudoeste 0 814.3 0.1 75
2019-08-07 18:00:00 14.5 21 Sudoeste 50 Sudoeste 0 814.4 -0.5 77
2019-08-07 17:00:00 13.4 22 Sudoeste -- -- -- 814.6 -0.4 87
2019-08-07 16:00:00 12.8 20 Sudoeste 42 Sudoeste 0.8 814.2 -0.5 82
2019-08-07 15:00:00 12.2 24 Oeste 46 Oeste 0.6 814.9 0.6 76
2019-08-07 14:00:00 15 22 Sudoeste 40 Sudoeste 0.2 815 1.1 52
2019-08-07 13:00:00 15.4 6 Noroeste 16 Noroeste 0.2 814.7 -- 60
2019-08-07 12:00:00 15.8 5 Norte 15 Noroeste 0 814.3 1.3 76
2019-08-07 11:00:00 17 5 Noroeste -- -- -- 813.9 1.2 51
2019-08-07 10:00:00 -- -- -- -- -- -- -- -- --
2019-08-07 09:00:00 13.9 9 Nordeste 14 Norte 0 813 0.9 73
2019-08-07 08:00:00 14.3 7 Norte 13 Noroeste 0 812.7 0.5 63
2019-08-07 07:00:00 15.3 6 Oeste 29 Oeste 0 812.4 -0.3 51
2019-08-07 06:00:00 15.2 11 Sudoeste 25 Sudoeste 0 812.1 -0.9 40
2019-08-07 05:00:00 13.3 4 Noroeste 11 Oeste 0 812.2 -1 64
2019-08-07 04:00:00 14.1 10 Nordeste 15 Norte 0 812.7 -1.2 59
2019-08-07 03:00:00 14.9 7 Noroeste 22 Noroeste 0 813 -1.4 57
2019-08-07 02:00:00 15.5 8 Oeste 18 Sudoeste 0 813.2 -1 53
2019-08-07 01:00:00 15.2 10 Norte 28 Noroeste 0 813.9 0.2 57
2019-08-07 00:00:00 16.7 9 Noroeste 28 Noroeste 0 814.4 0.8 52
2019-08-06 23:00:00 17.9 8 Noroeste 29 Noroeste 0 814.2 0.8 51
2019-08-06 22:00:00 18.9 5 Noroeste 17 Noroeste 0 813.7 0.2 44
2019-08-06 21:00:00 20.8 3 Oeste 20 Sudeste 0 813.6 -0.4 35
2019-08-06 20:00:00 22.4 8 Sur 30 Sur 0 813.4 -0.6 26
2019-08-06 19:00:00 23.4 13 Sur 38 Sur 0 813.5 -0.8 26
2019-08-06 18:00:00 24.9 17 Sudoeste 41 Sur 0 814 -0.7 26
2019-08-06 17:00:00 26.5 17 Sudoeste 41 Sudoeste 0 814 -1 23
2019-08-06 16:00:00 26.4 14 Sudoeste 33 Sur 0 814.3 -1.1 23
2019-08-06 15:00:00 26.8 12 Sur 28 Sudoeste 0 814.7 -0.6 21
2019-08-06 14:00:00 25.3 9 Noroeste 25 Sudoeste 0 815 -0.2 22
2019-08-06 13:00:00 24.9 10 Sur 28 Sudoeste 0 815.4 0.4 24
2019-08-06 12:00:00 23 13 Sur 31 Sur 0 815.3 0.4 26
2019-08-06 11:00:00 21.8 18 Sur 34 Sudoeste 0 815.2 0.3 28
2019-08-06 10:00:00 19.9 18 Sur 31 Sudoeste 0 815 0.4 29
2019-08-06 09:00:00 17.8 21 Sudoeste 31 Sudoeste 0 814.9 0.2 32
2019-08-06 08:00:00 15 4 Oeste 24 Sudoeste 0 814.9 0 50
2019-08-06 07:00:00 16.7 16 Sudoeste 27 Sur 0 814.6 -0.7 36
2019-08-06 06:00:00 17.3 20 Sudoeste 29 Sudoeste 0 814.7 -1 31
2019-08-06 05:00:00 15.6 6 Sudoeste 14 Sur 0 814.9 -1.1 47
2019-08-06 04:00:00 15.4 6 Norte 16 Noroeste 0 815.3 -0.6 50
2019-08-06 03:00:00 15.6 10 Norte 21 Noroeste 0 815.7 -0.2 49
2019-08-06 02:00:00 16.2 10 Noroeste 22 Noroeste 0 816 0 47
2019-08-06 01:00:00 17.2 9 Noroeste 17 Noroeste 0 815.9 0.3 37
2019-08-06 00:00:00 17.9 7 Noroeste 16 Noroeste 0 815.9 0.6 35
2019-08-05 23:00:00 18.6 10 Norte 19 Noroeste 0 816 0.9 33
2019-08-05 22:00:00 19.7 9 Noroeste 18 Norte 0 815.6 0.5 31
2019-08-05 21:00:00 21.9 7 Oeste 30 Sudoeste 0 815.3 0.1 21
2019-08-05 20:00:00 24.5 12 Sudoeste 29 Sudoeste 0 815.1 -0.3 16
2019-08-05 19:00:00 25.9 11 Sudoeste 39 Sudoeste 0 815.1 -0.4 15
2019-08-05 18:00:00 26.7 16 Sudoeste 38 Sudoeste 0 815.2 -0.6 15
2019-08-05 17:00:00 26.6 17 Sudoeste 44 Sudoeste 0 815.4 -0.7 16
2019-08-05 16:00:00 27.6 17 Sudoeste 46 Sudoeste 0 815.5 -0.8 16
2019-08-05 15:00:00 27.5 13 Sudoeste 45 Sudoeste 0 815.8 -0.6 14
2019-08-05 14:00:00 25.1 12 Sudoeste 36 Sudoeste 0 816.1 -0.2 22
2019-08-05 13:00:00 24.9 10 Sudoeste 30 Sur 0 816.3 0 24
2019-08-05 12:00:00 24.3 10 Sur 29 Sur 0 816.4 0.2 25
2019-08-05 11:00:00 22.1 7 Sur 22 Sur 0 816.3 0.2 31
2019-08-05 10:00:00 20.1 12 Sudoeste 22 Sudoeste 0 816.3 0.3 36
2019-08-05 09:00:00 18.7 9 Sudoeste 22 Sudoeste 0 816.2 0.3 39
2019-08-05 08:00:00 16.8 14 Sudoeste 21 Sur 0 816.1 -0.1 43
2019-08-05 07:00:00 16.9 15 Sudoeste 22 Sur 0 816 -0.3 43
2019-08-05 06:00:00 16.4 10 Sur 15 Sudoeste 0 815.9 -0.6 44
2019-08-05 05:00:00 16 8 Noroeste 10 Norte 0 816.2 -0.7 43
2019-08-05 04:00:00 16.6 3 Norte 7 Noroeste 0 816.3 -0.8 42
2019-08-05 03:00:00 16.8 5 Oeste 12 Noroeste 0 816.5 -0.4 41
2019-08-05 02:00:00 16.7 7 Noroeste 17 Norte 0 816.9 -0.2 43
2019-08-05 01:00:00 17.2 10 Noroeste 19 Noroeste 0 817.1 0.5 42
2019-08-05 00:00:00 18.5 9 Noroeste 17 Norte 0 816.9 0.6 39
2019-08-04 23:00:00 18.8 10 Norte 14 Norte 0 817.1 1.3 38
2019-08-04 22:00:00 19.7 8 Noroeste 14 Sudoeste 0 816.6 1 37
2019-08-04 21:00:00 21.6 6 Oeste 24 Sudoeste 0 816.3 0.6 29
2019-08-04 20:00:00 22.6 13 Sudoeste 31 Sudoeste 0 815.8 0.1 25
2019-08-04 19:00:00 25.7 13 Sudoeste 28 Sudoeste 0 815.6 -0.3 19
2019-08-04 18:00:00 26.3 13 Sudoeste 39 Sudoeste 0 815.7 -0.3 18
2019-08-04 17:00:00 26.6 11 Sudoeste 35 Sudoeste 0 815.7 -0.5 16
2019-08-04 16:00:00 26.2 16 Sudoeste 40 Sudoeste 0 815.9 -0.6 21
2019-08-04 15:00:00 26.3 15 Sudoeste 34 Sudoeste 0 816 -0.3 17
2019-08-04 14:00:00 24.4 15 Sudoeste 37 Sudoeste 0 816.2 0.1 18
2019-08-04 13:00:00 24.1 15 Sudoeste 38 Sudoeste 0 816.5 0.5 19
2019-08-04 12:00:00 22.7 13 Sudoeste 32 Sur 0 816.3 0.6 27
2019-08-04 11:00:00 21.2 20 Sur 39 Sur 0 816.1 0.7 29
2019-08-04 10:00:00 19.8 17 Sudoeste 29 Sudoeste 0 816 0.7 35
2019-08-04 09:00:00 18.3 17 Sur 30 Sur 0 815.7 0.3 38
2019-08-04 08:00:00 17.3 15 Sur 24 Sudoeste 0 815.4 -0.1 40
2019-08-04 07:00:00 16.2 3 Oeste 6 Noroeste 0 815.3 -0.3 45
2019-08-04 06:00:00 15.2 2 Sudeste 7 Este 0 815.4 -0.3 50
2019-08-04 05:00:00 16.2 4 Norte 8 Norte 0 815.5 -0.3 45
2019-08-04 04:00:00 15.8 5 Nordeste 12 Norte 0 815.6 -0.3 48
2019-08-04 03:00:00 16.3 9 Noroeste 19 Noroeste 0 815.7 -0.3 46
2019-08-04 02:00:00 16.8 9 Noroeste 22 Noroeste 0 815.8 -0.3 44
2019-08-04 01:00:00 17.7 7 Norte 17 Noroeste 0 815.9 0.3 41
2019-08-04 00:00:00 18.4 8 Noroeste 17 Noroeste 0 816 0.8 37
2019-08-03 23:00:00 18.9 5 Noroeste 16 Norte 0 816.1 1.1 30
2019-08-03 22:00:00 19.6 7 Sudeste 20 Sudoeste 0 815.6 0.5 23
2019-08-03 21:00:00 21.7 10 Sudoeste 29 Sudoeste 0 815.2 0 19
2019-08-03 20:00:00 23.5 16 Sur 36 Sur 0 815 -0.5 16
2019-08-03 19:00:00 25.2 14 Sur 35 Sudoeste 0 815.1 -0.7 17
2019-08-03 18:00:00 26.1 13 Sur 37 Sudoeste 0 815.2 -0.9 18
2019-08-03 17:00:00 26.2 13 Sur 33 Sudoeste 0 815.5 -0.7 19
2019-08-03 16:00:00 27 7 Sudoeste 40 Sudoeste 0 815.8 -0.6 19
2019-08-03 15:00:00 26.9 8 Sur 34 Sur 0 816.1 -0.2 20
2019-08-03 14:00:00 25.2 11 Sudoeste 31 Sudoeste 0 816.2 0.1 24
2019-08-03 13:00:00 25 15 Sur 35 Sudoeste 0 816.4 0.4 23
2019-08-03 12:00:00 23.7 8 Sudoeste 23 Sudoeste 0 816.3 0.5 24
2019-08-03 11:00:00 22.4 11 Sudoeste 24 Sudoeste 0 816.1 0.4 24
2019-08-03 10:00:00 21.3 7 Sudoeste 19 Sur 0 816 0.5 26
2019-08-03 09:00:00 20.1 8 Sudeste 18 Sur 0 815.8 0.5 28
2019-08-03 08:00:00 17.6 12 Sur 22 Sur 0 815.7 0.3 32
2019-08-03 07:00:00 16.4 13 Sur 23 Sur 0 815.5 0 35
2019-08-03 06:00:00 16.9 14 Sur 23 Sur 0 815.3 -0.4 32
2019-08-03 05:00:00 17.4 12 Sudeste 19 Sudeste 0 815.4 -0.6 30
2019-08-03 04:00:00 18.4 9 Sur 17 Sudeste 0 815.5 -0.9 27
2019-08-03 03:00:00 17.9 4 Noroeste 8 Norte 0 815.7 -0.8 36
2019-08-03 02:00:00 18.3 4 Sudoeste 5 Oeste 0 816 -0.7 35
2019-08-03 01:00:00 18.4 3 Noroeste 10 Noroeste 0 816.4 0.1 34
2019-08-03 00:00:00 18.5 8 Noroeste 14 Oeste 0 816.5 0.3 32
2019-08-02 23:00:00 19.1 8 Oeste 23 Sudoeste 0 816.7 0.7 28
2019-08-02 22:00:00 19.5 17 Sur 25 Sur 0 816.3 0.4 23
2019-08-02 21:00:00 21.6 14 Sudoeste 26 Sudoeste 0 816.2 0.2 24
2019-08-02 20:00:00 23 14 Sudoeste 25 Sudoeste 0 816 -0.2 25
2019-08-02 19:00:00 25.1 9 Oeste 21 Noroeste 0 815.9 -0.6 24
2019-08-02 18:00:00 27.1 6 Noroeste 22 Oeste 0 816 -0.5 24
2019-08-02 17:00:00 27.1 7 Sudoeste 31 Sur 0 816.2 -0.4 24
2019-08-02 16:00:00 26.8 11 Sudoeste 30 Sudoeste 0 816.5 -0.3 24
2019-08-02 15:00:00 26.2 13 Sudoeste 25 Sudoeste 0 816.5 -0.1 25
2019-08-02 14:00:00 25.9 9 Sur 28 Sur 0 816.6 0.1 23
2019-08-02 13:00:00 23.9 8 Sudoeste 31 Sur 0 816.8 0.6 27
2019-08-02 12:00:00 23.8 7 Sur 21 Sur 0 816.6 0.7 26
2019-08-02 11:00:00 21.3 10 Sudoeste 21 Sudoeste 0 816.5 1 31
2019-08-02 10:00:00 20.4 6 Sur 20 Sur 0 816.2 0.9 33
2019-08-02 09:00:00 18.5 6 Sudeste 10 Sur 0 815.9 0.6 36
2019-08-02 08:00:00 16.2 3 Sudoeste 5 Sudoeste 0 815.5 0.2 39
2019-08-02 07:00:00 15.3 4 Sudoeste 6 Oeste 0 815.3 -0.2 41
2019-08-02 06:00:00 15.3 6 Oeste 8 Norte 0 815.3 -0.2 40
2019-08-02 05:00:00 15.6 4 Noroeste 8 Noroeste 0 815.3 -0.4 39
2019-08-02 04:00:00 15.7 3 Noroeste 8 Noroeste 0 815.5 -0.3 40
2019-08-02 03:00:00 15.9 3 Noroeste 9 Norte 0 815.5 -0.3 39
2019-08-02 02:00:00 15.8 3 Norte 8 Oeste 0 815.7 0.1 40
2019-08-02 01:00:00 15.9 4 Oeste 10 Norte 0 815.8 0.7 39
2019-08-02 00:00:00 16 10 Norte 19 Norte 0 815.8 1.1 39
2019-08-01 23:00:00 16.4 13 Norte 19 Norte 0 815.6 1.3 39
2019-08-01 22:00:00 16.7 12 Norte 21 Norte 0 815.1 1 39
2019-08-01 21:00:00 18.4 8 Noroeste 24 Noroeste 0 814.7 0.5 37
2019-08-01 20:00:00 20.4 10 Noroeste 26 Norte 0 814.3 0.3 32
2019-08-01 19:00:00 22.4 9 Noroeste 26 Noroeste 0 814.1 -0.2 30
2019-08-01 18:00:00 20.9 6 Norte 17 Noroeste 0 814.2 -0.2 37
2019-08-01 17:00:00 21.5 6 Norte 22 Norte 0 814 -0.3 38
2019-08-01 16:00:00 21.3 8 Oeste 17 Oeste 0 814.3 0.1 37
2019-08-01 15:00:00 20.1 5 Noroeste 18 Noroeste 0 814.4 0.6 41
2019-08-01 14:00:00 19.7 5 Norte 14 Norte 0 814.3 0.8 43
2019-08-01 13:00:00 21 5 Norte 37 Sudoeste 0 814.2 0.9 43
2019-08-01 12:00:00 21.5 14 Sudoeste 30 Sur 0 813.8 0.7 43
2019-08-01 11:00:00 20.4 13 Sudoeste 37 Sudoeste 0 813.5 0.6 43
2019-08-01 10:00:00 19.1 14 Sudoeste 37 Oeste 0 813.3 0.6 34
2019-08-01 09:00:00 17.7 12 Sudoeste 37 Oeste 0 813.1 0.4 36
2019-08-01 08:00:00 16 19 Sudoeste 35 Sudoeste 0 812.9 0.1 44
2019-08-01 07:00:00 15.6 17 Sudoeste 32 Sudoeste 0 812.7 -0.3 66
2019-08-01 06:00:00 14.5 18 Sudoeste 29 Sudoeste 0 812.7 -0.7 79
2019-08-01 05:00:00 13 22 Sur 29 Sur 0 812.8 -0.9 95
2019-08-01 04:00:00 13.8 9 Sudoeste 34 Sudeste 0 813 -1.1 93
2019-08-01 03:00:00 14.5 23 Sudeste 36 Sudeste 0 813.4 -0.9 89
2019-08-01 02:00:00 14.9 16 Sudeste 39 Sudeste 0 813.7 -0.6 87
2019-08-01 01:00:00 15.5 20 Sudeste 38 Sudeste 0 814.1 0.2 83
2019-08-01 00:00:00 16.5 23 Sudeste 42 Sur 0 814.3 0.3 78
2019-07-31 23:00:00 17.3 13 Sur 35 Sudeste 0 814.3 0.2 70
2019-07-31 22:00:00 18.6 10 Sudeste 23 Sur 0 813.9 -0.3 47
2019-07-31 21:00:00 20 8 Sur 32 Sudoeste 0 814 -0.3 41
2019-07-31 20:00:00 21.6 17 Sudoeste 39 Sur 0 814.1 -0.6 36
2019-07-31 19:00:00 22.7 13 Sur 37 Sur 0 814.2 -0.7 34
2019-07-31 18:00:00 22.9 18 Sudoeste 40 Sudoeste 0 814.3 -0.8 35
2019-07-31 17:00:00 22.8 22 Sur 46 Sur 0 814.7 -0.5 37
2019-07-31 16:00:00 23.1 16 Sudoeste 43 Sudeste 0 814.9 -0.5 36
2019-07-31 15:00:00 22.9 14 Sudeste 35 Sudeste 0 815.1 -0.2 41
2019-07-31 14:00:00 23 15 Sudeste 33 Sudeste 0 815.2 0.1 41
2019-07-31 13:00:00 21.9 10 Sudeste 28 Sur 0 815.4 0.6 47
2019-07-31 12:00:00 21.7 10 Sur 26 Sudeste 0 815.3 0.6 51
2019-07-31 11:00:00 19.4 14 Sudeste 31 Sur 0 815.1 0.4 55
2019-07-31 10:00:00 17.1 15 Sur 33 Sudeste 0 814.8 -0.1 67
2019-07-31 09:00:00 14.9 12 Sudeste 40 Sudeste 0 814.7 -0.2 76
2019-07-31 08:00:00 12.3 29 Sudeste 51 Sudeste 0 814.7 -0.2 81
2019-07-31 07:00:00 12.4 17 Sudeste 37 Sur 0 814.9 -0.2 86
2019-07-31 06:00:00 12.5 14 Sur 33 Sur 0 814.9 -0.4 87
2019-07-31 05:00:00 12.5 13 Sudeste 22 Sudeste 0 814.9 -0.4 52
2019-07-31 04:00:00 11.7 6 Este 21 Nordeste 0 815.1 -0.3 46
2019-07-31 03:00:00 12.6 6 Noroeste 9 Sudoeste 0 815.3 -0.1 43
2019-07-31 02:00:00 12.1 6 Oeste 18 Nordeste 0 815.3 -0.3 47
2019-07-31 01:00:00 12.2 8 Norte 17 Sur 0 815.4 0 47
2019-07-31 00:00:00 12.4 11 Sudeste 18 Sudeste 0 815.4 0.1 38
2019-07-30 23:00:00 11.6 7 Oeste 15 Noroeste 0 815.6 0.4 49
2019-07-30 22:00:00 12.6 7 Oeste 18 Noroeste 0 815.4 0.3 47
2019-07-30 21:00:00 14.5 10 Noroeste 22 Noroeste 0 815.3 0.1 40
2019-07-30 20:00:00 17.3 9 Noroeste 23 Noroeste 0 815.2 -0.1 35
2019-07-30 19:00:00 18.5 9 Noroeste 26 Noroeste 0 815.1 -0.4 32
2019-07-30 18:00:00 19.4 9 Norte 23 Norte 0 815.2 -0.3 29
2019-07-30 17:00:00 20.4 5 Norte 22 Noroeste 0 815.3 -0.3 28
2019-07-30 16:00:00 19.3 12 Noroeste 25 Noroeste 0 815.5 0 32
2019-07-30 15:00:00 18.8 9 Noroeste 21 Norte 0 815.5 0.1 35
2019-07-30 14:00:00 17.7 8 Noroeste 22 Noroeste 0 815.6 0.5 39
2019-07-30 13:00:00 16.7 4 Norte 14 Noroeste 0 815.5 0.5 43
2019-07-30 12:00:00 14.3 4 Noroeste 12 Noroeste 0 815.4 0.9 48
2019-07-30 11:00:00 12.2 5 Noroeste 12 Norte 0 815.1 1.2 56
2019-07-30 10:00:00 10.8 5 Norte 11 Norte 0 815 1.2 60
2019-07-30 09:00:00 8.7 3 Noroeste 9 Norte 0 814.5 0.7 66
2019-07-30 08:00:00 5.5 4 Norte 11 Noroeste 0 813.9 -0.1 83
2019-07-30 07:00:00 4.5 6 Norte 11 Norte 0 813.8 -0.2 85
2019-07-30 06:00:00 5.1 8 Norte 16 Noroeste 0 813.8 -0.4 81
2019-07-30 05:00:00 5.3 9 Noroeste 19 Noroeste 0 814 -0.3 77
2019-07-30 04:00:00 6.3 9 Noroeste 16 Noroeste 0 814 -0.4 73
2019-07-30 03:00:00 7 6 Noroeste 17 Norte 0 814.2 -0.3 69
2019-07-30 02:00:00 7.9 5 Noroeste 24 Noroeste 0 814.3 -0.2 64
2019-07-30 01:00:00 9.2 10 Noroeste 25 Noroeste 0 814.4 0.7 59
2019-07-30 00:00:00 10.3 12 Norte 24 Noroeste 0 814.5 1.2 53
2019-07-29 23:00:00 11.7 13 Noroeste 36 Noroeste 0 814.5 1.4 48
2019-07-29 22:00:00 13.2 12 Noroeste 32 Norte 0 813.7 0.8 41
2019-07-29 21:00:00 15.2 10 Noroeste 33 Noroeste 0 813.3 0.5 39
2019-07-29 20:00:00 17 13 Norte 33 Norte 0 813.1 0.4 35
2019-07-29 19:00:00 19.2 13 Noroeste 40 Noroeste 0 812.9 0.2 39
2019-07-29 18:00:00 18.9 17 Noroeste 36 Norte 0 812.8 0.3 45
2019-07-29 17:00:00 21.2 14 Norte 33 Noroeste 0 812.7 0.1 38
2019-07-29 16:00:00 20.8 9 Norte 29 Noroeste 0 812.7 0.1 37
2019-07-29 15:00:00 21.8 12 Noroeste 26 Noroeste 0 812.5 0 29
2019-07-29 14:00:00 21.3 13 Noroeste 28 Oeste 0 812.6 0.4 31
2019-07-29 13:00:00 20.9 5 Norte 22 Noroeste 0 812.6 0.6 38
2019-07-29 12:00:00 18.8 12 Noroeste 26 Sudoeste 0 812.5 0.6 45
2019-07-29 11:00:00 18.5 12 Sudoeste 30 Sudoeste 0 812.2 0.6 40
2019-07-29 10:00:00 17.5 13 Sur 25 Sudoeste 0 812 0.6 45
2019-07-29 09:00:00 15.6 6 Sudoeste 18 Sudoeste 0 811.9 0.3 49
2019-07-29 08:00:00 12.4 7 Sudoeste 14 Sudoeste 0 811.6 0.1 61
2019-07-29 07:00:00 9.9 5 Nordeste 11 Nordeste 0 811.4 -0.2 72
2019-07-29 06:00:00 10.3 8 Nordeste 15 Nordeste 0 811.6 -0.2 55
2019-07-29 05:00:00 13.1 7 Noroeste 19 Noroeste 0 811.5 -0.4 41
2019-07-29 04:00:00 13.1 8 Oeste 22 Sudoeste 0 811.6 -0.4 42
2019-07-29 03:00:00 13.6 4 Oeste 17 Oeste 0 811.8 -0.3 40
2019-07-29 02:00:00 13.8 7 Noroeste 18 Oeste 0 811.9 -0.3 40
2019-07-29 01:00:00 14.3 8 Oeste 19 Noroeste 0 812 0.2 39
2019-07-29 00:00:00 14.3 10 Noroeste 14 Noroeste 0 812.1 0.5 37
2019-07-28 23:00:00 14.2 6 Norte 10 Norte 0 812.2 0.8 32
2019-07-28 22:00:00 14.2 10 Norte 17 Noroeste 0 811.8 0.7 31
2019-07-28 21:00:00 16.2 8 Noroeste 23 Noroeste 0 811.6 0.5 29
2019-07-28 20:00:00 18.2 6 Noroeste 26 Noroeste 0 811.4 0 28
2019-07-28 19:00:00 19.3 10 Noroeste 26 Norte 0 811.1 -0.4 28
2019-07-28 18:00:00 20.1 12 Noroeste 30 Noroeste 0 811.1 -0.4 28
2019-07-28 17:00:00 19.9 11 Noroeste 31 Norte 0 811.4 -0.1 29
2019-07-28 16:00:00 20.5 8 Noroeste 24 Norte 0 811.5 0 30
2019-07-28 15:00:00 19 8 Noroeste 28 Noroeste 0 811.5 0 33
2019-07-28 14:00:00 18 10 Noroeste 23 Noroeste 0 811.5 0.2 37
2019-07-28 13:00:00 17 8 Noroeste 23 Norte 0 811.5 0.2 45
2019-07-28 12:00:00 15.4 4 Norte 17 Noroeste 0 811.5 0.5 51
2019-07-28 11:00:00 13.7 7 Norte 19 Norte 0 811.3 0.6 57
2019-07-28 10:00:00 12.5 6 Norte 16 Noroeste 0 811.3 0.8 61
2019-07-28 09:00:00 10.9 5 Norte 20 Noroeste 0 811 0.6 63
2019-07-28 08:00:00 9.3 9 Nordeste 23 Norte 0 810.7 0.3 71
2019-07-28 07:00:00 7.6 16 Nordeste 22 Norte 0 810.5 -0.1 75
2019-07-28 06:00:00 7.3 14 Nordeste 28 Norte 0 810.4 0 78
2019-07-28 05:00:00 7.4 13 Nordeste 26 Norte 0 810.4 -0.1 81
2019-07-28 04:00:00 7.7 13 Norte 24 Norte 0 810.6 0.2 82
2019-07-28 03:00:00 8 11 Nordeste 21 Norte 0 810.4 -0.3 89
2019-07-28 02:00:00 8.6 14 Norte 31 Noroeste 0 810.5 0.1 92
2019-07-28 01:00:00 8.7 18 Norte 31 Norte 0 810.4 0.5 94
2019-07-28 00:00:00 9.7 14 Norte 24 Nordeste 0 810.7 1.2 89
2019-07-27 23:00:00 10.2 12 Norte 32 Noroeste 0 810.4 1.4 86
2019-07-26 12:00:00 16 10 Noroeste 22 Noroeste 0 812.9 0.4 73
2019-07-26 11:00:00 15.6 5 Noroeste 10 Noroeste 0 812.7 0.3 75
2019-07-26 10:00:00 15.2 3 Este 10 Este 0 812.6 -0.2 79
2019-07-26 09:00:00 12.9 2 Nordeste 10 Sur 0 812.5 -0.1 91
2019-07-26 08:00:00 12.8 8 Sudoeste 17 Sur 0 812.4 -1.2 74
2019-07-26 07:00:00 13.6 12 Oeste 42 Sudoeste 0 812.8 -1.2 82
2019-07-26 06:00:00 15.7 29 Sudoeste 54 Sur 0 812.6 -1.3 46
2019-07-26 05:00:00 12.9 5 Nordeste 16 Norte 0 813.6 -0.9 84
2019-07-26 04:00:00 14 6 Norte 20 Noroeste 0 814 -1 71
2019-07-26 03:00:00 15.3 7 Oeste 13 Sudoeste 0 813.9 -1.3 57
2019-07-26 02:00:00 15.3 6 Noroeste 14 Noroeste 0 814.5 -0.6 54
2019-07-26 01:00:00 15.9 8 Noroeste 19 Norte 0 815 -0.1 50
2019-07-26 00:00:00 16.8 15 Norte 27 Oeste 0 815.2 0.2 44